METAR SBMG

2017042800 - METAR SBMG 280000Z 19003KT CAVOK 13/07 Q1019=

Escala PR-FEA

ESCALA - SIMULADOR GA-18

Escala PR-FGM
Powered by ©Kanestech